createdAt,value
2022-09-22T00:04:18.797Z,10.08
2022-09-22T00:19:25.272Z,10.01
2022-09-22T00:34:28.718Z,10.20
2022-09-22T00:50:00.851Z,10.02
2022-09-22T01:05:05.377Z,9.72
2022-09-22T01:20:34.170Z,9.53
2022-09-22T01:36:02.961Z,9.43
2022-09-22T01:51:15.850Z,9.29
2022-09-22T02:06:25.583Z,9.29
2022-09-22T02:21:29.141Z,9.35
2022-09-22T02:36:46.440Z,9.42
2022-09-22T02:51:50.734Z,9.60
2022-09-22T03:06:53.811Z,9.70
2022-09-22T03:21:57.147Z,9.76
2022-09-22T03:37:00.182Z,9.73
2022-09-22T03:52:03.196Z,9.66
2022-09-22T04:07:07.386Z,9.55
2022-09-22T04:22:11.013Z,9.51
2022-09-22T04:37:14.065Z,9.43
2022-09-22T04:52:17.038Z,9.61
2022-09-22T05:07:19.978Z,9.91
2022-09-22T05:22:23.945Z,10.25
2022-09-22T05:37:27.176Z,10.53
2022-09-22T05:52:30.180Z,11.02
2022-09-22T06:07:33.167Z,11.49
2022-09-22T06:22:37.565Z,11.70
2022-09-22T06:37:40.962Z,12.05
2022-09-22T06:52:44.421Z,12.37
2022-09-22T07:07:47.465Z,13.06
2022-09-22T07:22:51.189Z,13.63
2022-09-22T07:38:03.715Z,13.93
2022-09-22T07:53:07.318Z,14.54
2022-09-22T08:08:10.316Z,15.21
2022-09-22T08:23:14.518Z,15.77
2022-09-22T08:38:18.361Z,16.36
2022-09-22T08:53:23.804Z,17.11
2022-09-22T09:08:41.755Z,17.34
2022-09-22T09:39:15.886Z,18.18
2022-09-22T09:54:20.674Z,18.09
2022-09-22T10:09:29.741Z,17.67
2022-09-22T10:24:34.949Z,18.06
2022-09-22T10:39:59.246Z,18.11
2022-09-22T10:55:37.647Z,17.91
2022-09-22T11:11:16.215Z,18.77
2022-09-22T11:26:29.274Z,18.46
2022-09-22T11:41:49.420Z,19.28
2022-09-22T11:56:58.054Z,18.88
2022-09-22T12:12:03.363Z,18.82
2022-09-22T12:27:21.740Z,18.79
2022-09-22T12:42:37.978Z,19.88
2022-09-22T12:57:49.038Z,21.06
2022-09-22T13:13:21.494Z,20.03
2022-09-22T13:28:26.475Z,20.62
2022-09-22T13:43:35.724Z,19.53
2022-09-22T13:58:42.477Z,19.41
2022-09-22T14:13:56.909Z,26.92
2022-09-22T14:29:15.695Z,27.36
2022-09-22T14:44:42.617Z,21.48
2022-09-22T15:00:12.909Z,18.95
2022-09-22T15:15:32.794Z,17.09
2022-09-22T15:30:36.604Z,15.83
2022-09-22T15:45:48.402Z,15.82
2022-09-22T16:00:53.565Z,16.41
2022-09-22T16:15:57.794Z,16.60
2022-09-22T16:31:05.990Z,15.88
2022-09-22T16:46:28.817Z,15.29
2022-09-22T17:01:38.111Z,15.10
2022-09-22T17:16:44.397Z,14.79
2022-09-22T17:31:50.042Z,14.33
2022-09-22T17:47:12.321Z,13.95
2022-09-22T18:02:18.272Z,13.57
2022-09-22T18:17:25.715Z,13.23
2022-09-22T18:32:29.546Z,12.82
2022-09-22T18:47:41.260Z,12.30
2022-09-22T19:02:46.702Z,11.83
2022-09-22T19:17:51.202Z,11.55
2022-09-22T19:32:54.903Z,11.39
2022-09-22T19:47:59.222Z,11.29
2022-09-22T20:03:03.355Z,11.02
2022-09-22T20:18:06.788Z,10.83
2022-09-22T20:33:22.027Z,10.67
2022-09-22T20:48:25.770Z,10.49
2022-09-22T21:03:29.683Z,10.09
2022-09-22T21:18:35.459Z,9.92
2022-09-22T21:33:38.684Z,9.78
2022-09-22T21:48:43.492Z,9.49
2022-09-22T22:03:48.847Z,9.34
2022-09-22T22:18:52.606Z,9.13
2022-09-22T22:33:57.143Z,9.04
2022-09-22T22:49:00.385Z,8.97
2022-09-22T23:04:09.109Z,8.92
2022-09-22T23:19:13.914Z,8.79
2022-09-22T23:34:16.980Z,8.57
2022-09-22T23:49:20.344Z,8.41
